Time;durP1;ratioP1;P1;durP2;ratioP2;P2;SDS_P1;SDS_P2;PMS_P1;PMS_P2;Temp;Humidity;BMP_temperature;BMP_pressure;BME280_temperature;BME280_humidity;BME280_pressure;Samples;Min_cycle;Max_cycle;Signal;HPM_P1;HPM_P2
2022/09/25 00:02:03;;;;;;;1.60;1.05;;;21.50;77.10;;;;;;5132922;27;45313;-72
2022/09/25 00:04:30;;;;;;;1.17;1.08;;;21.50;77.00;;;;;;5132513;27;45414;-72
2022/09/25 00:06:57;;;;;;;1.10;1.00;;;21.50;77.00;;;;;;5135576;27;45730;-73
2022/09/25 00:09:24;;;;;;;1.42;1.00;;;21.50;77.00;;;;;;5141148;27;45457;-73
2022/09/25 00:11:52;;;;;;;1.10;0.90;;;21.50;77.00;;;;;;5149042;27;45426;-73
2022/09/25 00:14:18;;;;;;;1.08;0.90;;;21.60;77.00;;;;;;5157087;27;45430;-73
2022/09/25 00:16:45;;;;;;;1.30;1.02;;;21.50;78.00;;;;;;5142480;27;46205;-73
2022/09/25 00:22:04;;;;;;;1.85;1.00;;;21.50;77.00;;;;;;5148874;27;45352;-72
2022/09/25 00:24:32;;;;;;;1.48;1.13;;;21.50;77.00;;;;;;5153222;27;45260;-72
2022/09/25 00:27:00;;;;;;;2.25;1.17;;;21.50;77.00;;;;;;5152332;27;47468;-74
2022/09/25 00:29:28;;;;;;;1.92;1.10;;;21.50;77.00;;;;;;5128278;27;46218;-72
2022/09/25 00:31:55;;;;;;;1.48;1.02;;;21.50;77.00;;;;;;5147299;27;45350;-72
2022/09/25 00:34:22;;;;;;;2.25;1.00;;;21.50;76.90;;;;;;5144658;27;45443;-72
2022/09/25 00:36:48;;;;;;;1.38;1.00;;;21.50;76.80;;;;;;5144650;27;47148;-73
2022/09/25 00:39:15;;;;;;;0.90;0.77;;;21.50;76.80;;;;;;5138630;27;45297;-73
2022/09/25 00:41:42;;;;;;;1.75;1.10;;;21.50;76.80;;;;;;5143987;27;45509;-72
2022/09/25 00:44:56;;;;;;;1.58;1.00;;;21.50;76.70;;;;;;5141245;27;45552;-72
2022/09/25 00:47:41;;;;;;;1.00;0.80;;;21.50;76.50;;;;;;5077835;28;47329;-73
2022/09/25 00:50:20;;;;;;;1.63;0.90;;;21.50;76.50;;;;;;5074744;28;45404;-72
2022/09/25 00:52:48;;;;;;;2.25;1.00;;;21.60;76.50;;;;;;5118480;27;45401;-73
2022/09/25 00:55:15;;;;;;;1.40;0.90;;;21.60;76.40;;;;;;5142843;27;45452;-74
2022/09/25 00:57:46;;;;;;;1.33;0.95;;;21.60;76.40;;;;;;5141667;27;48352;-72
2022/09/25 01:00:14;;;;;;;0.80;0.80;;;21.60;76.30;;;;;;5141094;27;45499;-73
2022/09/25 01:02:47;;;;;;;2.17;1.02;;;21.60;76.30;;;;;;5142812;27;45379;-73
2022/09/25 01:05:16;;;;;;;1.35;0.90;;;21.60;76.20;;;;;;5141984;27;45553;-73
2022/09/25 01:07:46;;;;;;;2.28;0.95;;;21.60;76.20;;;;;;5144449;27;45321;-73
2022/09/25 01:10:14;;;;;;;1.35;0.80;;;21.60;76.00;;;;;;5141185;27;45533;-73
2022/09/25 01:12:43;;;;;;;2.05;0.80;;;21.60;76.10;;;;;;5143455;27;45394;-72
2022/09/25 01:15:11;;;;;;;1.02;0.80;;;21.60;76.00;;;;;;5137507;27;45381;-74
2022/09/25 01:17:49;;;;;;;1.17;0.73;;;21.60;75.90;;;;;;5143917;27;47486;-73
2022/09/25 01:20:29;;;;;;;2.45;1.00;;;21.60;75.80;;;;;;5141414;27;45502;-73
2022/09/25 01:23:11;;;;;;;1.27;0.90;;;21.60;75.80;;;;;;5141603;27;45422;-73
2022/09/25 01:25:53;;;;;;;1.30;0.80;;;21.60;75.80;;;;;;5141971;27;45394;-73
2022/09/25 01:28:55;;;;;;;1.60;0.68;;;21.50;75.90;;;;;;5138115;27;46891;-73
2022/09/25 01:31:32;;;;;;;1.30;0.70;;;21.50;75.60;;;;;;5099234;27;45372;-72
2022/09/25 01:34:06;;;;;;;1.27;0.80;;;21.60;75.80;;;;;;5140753;27;45457;-73
2022/09/25 01:36:37;;;;;;;1.50;0.80;;;21.50;75.70;;;;;;5124699;27;45266;-73
2022/09/25 01:39:11;;;;;;;0.82;0.70;;;21.50;75.70;;;;;;5134971;27;45434;-73
2022/09/25 01:41:46;;;;;;;1.63;0.80;;;21.50;75.80;;;;;;5141422;27;45826;-72
2022/09/25 01:44:17;;;;;;;2.15;0.93;;;21.50;75.70;;;;;;5143152;27;45449;-73
2022/09/25 01:46:49;;;;;;;1.77;0.73;;;21.50;75.70;;;;;;5143033;27;45496;-73
2022/09/25 01:49:22;;;;;;;1.15;0.90;;;21.50;75.60;;;;;;5138060;27;46213;-73
2022/09/25 01:51:51;;;;;;;1.52;0.82;;;21.50;75.60;;;;;;5140430;27;45682;-73
2022/09/25 01:54:23;;;;;;;1.95;0.80;;;21.50;75.60;;;;;;5145050;27;45317;-73
2022/09/25 01:56:55;;;;;;;1.33;0.70;;;21.50;75.50;;;;;;5137280;27;45564;-74
2022/09/25 01:59:27;;;;;;;1.38;0.60;;;21.50;75.50;;;;;;5131463;27;48198;-74
2022/09/25 02:01:56;;;;;;;1.35;0.50;;;21.50;75.30;;;;;;5142803;27;45816;-73
2022/09/25 02:04:29;;;;;;;1.00;0.75;;;21.50;75.30;;;;;;5135164;27;45516;-73
2022/09/25 02:07:02;;;;;;;1.17;0.70;;;21.50;75.20;;;;;;5137979;27;45346;-73
2022/09/25 02:09:34;;;;;;;2.30;0.82;;;21.50;75.20;;;;;;5135073;27;46695;-73
2022/09/25 02:12:07;;;;;;;1.48;0.60;;;21.50;75.30;;;;;;5139772;27;45247;-74
2022/09/25 02:14:38;;;;;;;0.60;0.40;;;21.50;75.20;;;;;;5144698;27;45355;-74
2022/09/25 02:17:11;;;;;;;1.27;0.52;;;21.50;75.20;;;;;;5142226;27;45481;-74
2022/09/25 02:22:26;;;;;;;0.77;0.65;;;21.50;75.20;;;;;;5134193;27;45514;-73
2022/09/25 02:24:56;;;;;;;0.75;0.50;;;21.50;75.20;;;;;;5144583;27;45437;-73
2022/09/25 02:27:26;;;;;;;0.90;0.60;;;21.50;75.30;;;;;;5137099;27;45358;-73
2022/09/25 02:29:53;;;;;;;1.00;0.45;;;21.50;75.40;;;;;;5143814;27;45513;-73
2022/09/25 02:32:26;;;;;;;0.68;0.50;;;21.50;75.40;;;;;;5141954;27;45342;-73
2022/09/25 02:34:53;;;;;;;0.55;0.32;;;21.50;75.50;;;;;;5131149;27;45413;-73
2022/09/25 02:37:20;;;;;;;1.23;0.65;;;21.50;75.50;;;;;;5134011;27;45316;-73
2022/09/25 02:39:51;;;;;;;0.95;0.40;;;21.40;76.60;;;;;;5143286;27;47929;-73
2022/09/25 02:42:30;;;;;;;0.73;0.50;;;21.40;75.60;;;;;;5143935;27;46159;-73
2022/09/25 02:45:10;;;;;;;0.73;0.57;;;21.50;75.70;;;;;;5134952;27;45386;-73
2022/09/25 02:47:44;;;;;;;0.73;0.30;;;21.40;75.70;;;;;;5141493;27;45375;-73
2022/09/25 02:50:23;;;;;;;1.23;0.60;;;21.40;75.70;;;;;;5143208;27;46431;-73
2022/09/25 02:52:56;;;;;;;0.40;0.40;;;21.50;75.70;;;;;;5144368;27;45417;-74
2022/09/25 02:55:33;;;;;;;0.70;0.50;;;21.40;75.70;;;;;;5133885;27;45364;-73
2022/09/25 02:58:05;;;;;;;1.15;0.38;;;21.50;75.60;;;;;;5133189;27;45440;-73
2022/09/25 03:00:36;;;;;;;0.68;0.50;;;21.50;75.50;;;;;;5136716;27;47214;-73
2022/09/25 03:03:07;;;;;;;0.80;0.50;;;21.50;75.30;;;;;;5147451;27;45379;-73
2022/09/25 03:05:34;;;;;;;0.93;0.45;;;21.40;75.20;;;;;;5143659;27;45395;-73
2022/09/25 03:10:47;;;;;;;1.35;0.40;;;21.50;75.30;;;;;;5142793;27;45436;-73
2022/09/25 03:13:16;;;;;;;0.68;0.50;;;21.50;75.10;;;;;;5140606;27;45353;-73
2022/09/25 03:15:45;;;;;;;0.60;0.50;;;21.50;75.10;;;;;;5143935;27;45386;-74
2022/09/25 03:18:14;;;;;;;1.80;0.68;;;21.40;75.00;;;;;;5147264;27;45589;-74
2022/09/25 03:20:41;;;;;;;1.17;0.50;;;21.50;75.00;;;;;;5145411;27;45476;-73
2022/09/25 03:23:09;;;;;;;1.30;0.65;;;21.50;74.90;;;;;;5143268;27;45325;-73
2022/09/25 03:25:35;;;;;;;1.23;0.50;;;21.50;74.90;;;;;;5146845;27;45416;-72
2022/09/25 03:28:02;;;;;;;0.63;0.35;;;21.40;74.90;;;;;;5141876;27;45467;-74
2022/09/25 03:30:29;;;;;;;1.85;0.73;;;21.50;74.90;;;;;;5139471;27;45370;-73
2022/09/25 03:32:56;;;;;;;0.68;0.50;;;21.50;74.90;;;;;;5145820;27;45384;-73
2022/09/25 03:35:24;;;;;;;0.60;0.30;;;21.50;74.80;;;;;;5147001;27;45386;-73
2022/09/25 03:37:51;;;;;;;1.35;0.52;;;21.40;74.80;;;;;;5143828;27;45267;-73
2022/09/25 03:40:19;;;;;;;0.65;0.50;;;21.40;74.70;;;;;;5144893;27;46301;-73
2022/09/25 03:42:46;;;;;;;0.68;0.50;;;21.40;74.70;;;;;;5145017;27;45373;-73
2022/09/25 03:45:13;;;;;;;0.73;0.30;;;21.40;74.60;;;;;;5144342;27;45473;-73
2022/09/25 03:47:39;;;;;;;0.70;0.22;;;21.40;74.50;;;;;;5126059;27;45352;-72
2022/09/25 03:50:08;;;;;;;0.68;0.30;;;21.50;74.60;;;;;;5134778;27;47972;-73
2022/09/25 03:52:36;;;;;;;0.70;0.40;;;21.40;74.60;;;;;;5146759;27;45319;-73
2022/09/25 03:55:03;;;;;;;2.17;0.60;;;21.50;74.70;;;;;;5145606;27;45310;-73
2022/09/25 03:57:30;;;;;;;1.90;0.52;;;21.40;74.50;;;;;;5138557;27;45615;-73
2022/09/25 04:00:00;;;;;;;1.27;0.47;;;21.40;74.60;;;;;;5137633;27;48751;-73
2022/09/25 04:02:27;;;;;;;0.43;0.40;;;21.40;74.60;;;;;;5137237;27;45492;-73
2022/09/25 04:04:54;;;;;;;0.80;0.25;;;21.40;74.40;;;;;;5144424;27;45469;-73
2022/09/25 04:07:21;;;;;;;1.08;0.50;;;21.40;74.40;;;;;;5138609;27;45583;-72
2022/09/25 04:09:49;;;;;;;0.55;0.40;;;21.40;74.50;;;;;;5143549;27;45444;-72
2022/09/25 04:12:16;;;;;;;1.02;0.20;;;21.40;74.50;;;;;;5146370;27;45357;-74
2022/09/25 04:14:45;;;;;;;1.02;0.40;;;21.40;74.50;;;;;;5145456;27;45446;-73
2022/09/25 04:17:12;;;;;;;0.98;0.40;;;21.50;74.60;;;;;;5145343;27;45265;-73
2022/09/25 04:19:39;;;;;;;0.52;0.30;;;21.40;74.30;;;;;;5140926;27;46540;-72
2022/09/25 04:22:06;;;;;;;0.40;0.20;;;21.40;74.40;;;;;;5142958;27;45280;-73
2022/09/25 04:24:51;;;;;;;0.60;0.30;;;21.40;74.30;;;;;;5144496;27;45372;-73
2022/09/25 04:27:21;;;;;;;0.30;0.30;;;21.40;74.30;;;;;;5145858;27;45482;-73
2022/09/25 04:29:48;;;;;;;0.52;0.38;;;21.40;74.20;;;;;;5137083;27;45345;-73
2022/09/25 04:35:01;;;;;;;0.35;0.30;;;21.50;74.20;;;;;;5143167;27;45364;-72
2022/09/25 04:37:28;;;;;;;0.40;0.30;;;21.50;74.20;;;;;;5135698;27;45742;-73
2022/09/25 04:39:55;;;;;;;0.50;0.38;;;21.40;74.10;;;;;;5140342;27;46302;-72
2022/09/25 04:42:24;;;;;;;0.40;0.30;;;21.40;73.90;;;;;;5146007;27;45295;-73
2022/09/25 04:44:53;;;;;;;0.82;0.40;;;21.40;73.80;;;;;;5140516;27;45384;-73
2022/09/25 04:47:20;;;;;;;0.70;0.40;;;21.40;73.80;;;;;;5145829;27;45394;-72
2022/09/25 04:49:47;;;;;;;0.20;0.20;;;21.40;73.40;;;;;;5139329;27;46971;-72
2022/09/25 04:52:14;;;;;;;2.03;0.40;;;21.50;72.70;;;;;;5144694;27;45385;-72
2022/09/25 04:54:41;;;;;;;0.52;0.25;;;21.40;72.70;;;;;;5137352;27;45415;-72
2022/09/25 04:57:08;;;;;;;0.55;0.30;;;21.40;72.60;;;;;;5144872;27;45560;-72
2022/09/25 04:59:36;;;;;;;0.22;0.20;;;21.40;72.10;;;;;;5130708;27;46624;-72
2022/09/25 05:02:03;;;;;;;0.57;0.22;;;21.40;72.20;;;;;;5144727;27;45308;-72
2022/09/25 05:04:30;;;;;;;0.40;0.20;;;21.40;71.80;;;;;;5139318;27;45541;-72
2022/09/25 05:06:57;;;;;;;0.88;0.13;;;21.40;71.50;;;;;;5145416;27;45460;-72
2022/09/25 05:09:24;;;;;;;0.30;0.30;;;21.40;71.30;;;;;;5136395;27;46703;-72
2022/09/25 05:11:51;;;;;;;1.48;0.68;;;21.40;71.40;;;;;;5131419;27;45481;-72
2022/09/25 05:14:18;;;;;;;0.63;0.45;;;21.40;71.60;;;;;;5136129;27;45560;-72
2022/09/25 05:16:47;;;;;;;0.50;0.30;;;21.40;71.90;;;;;;5144968;27;45430;-72
2022/09/25 05:19:14;;;;;;;0.90;0.50;;;21.40;72.20;;;;;;5127544;27;48006;-73
2022/09/25 05:21:40;;;;;;;1.23;0.38;;;21.40;72.60;;;;;;5144120;27;45341;-72
2022/09/25 05:24:08;;;;;;;0.73;0.35;;;21.40;72.40;;;;;;5136798;27;45368;-72
2022/09/25 05:26:35;;;;;;;1.13;0.30;;;21.40;72.50;;;;;;5143610;27;45419;-72
2022/09/25 05:29:02;;;;;;;0.50;0.40;;;21.40;72.60;;;;;;5143328;27;47473;-72
2022/09/25 05:31:28;;;;;;;0.68;0.30;;;21.40;72.60;;;;;;5143642;27;45339;-72
2022/09/25 05:33:57;;;;;;;0.52;0.20;;;21.40;72.70;;;;;;5139403;27;45306;-72
2022/09/25 05:36:24;;;;;;;1.17;0.50;;;21.50;72.80;;;;;;5143909;27;45445;-72
2022/09/25 05:38:50;;;;;;;0.45;0.15;;;21.40;72.80;;;;;;5131742;27;45486;-72
2022/09/25 05:41:17;;;;;;;0.40;0.30;;;21.40;72.90;;;;;;5141880;27;45349;-72
2022/09/25 05:43:46;;;;;;;0.30;0.17;;;21.50;73.00;;;;;;5138647;27;45513;-72
2022/09/25 05:46:14;;;;;;;0.57;0.30;;;21.40;73.10;;;;;;5127679;27;45399;-72
2022/09/25 05:48:40;;;;;;;0.30;0.20;;;21.50;73.30;;;;;;5140956;27;47173;-72
2022/09/25 05:51:09;;;;;;;0.20;0.20;;;21.40;73.20;;;;;;5142480;27;45385;-72
2022/09/25 05:53:36;;;;;;;0.88;0.40;;;21.50;73.30;;;;;;5141039;27;45309;-72
2022/09/25 05:56:05;;;;;;;0.17;0.13;;;21.50;73.30;;;;;;5144290;27;45573;-72
2022/09/25 05:58:33;;;;;;;0.25;0.20;;;21.50;73.30;;;;;;5137112;27;46591;-72
2022/09/25 06:01:01;;;;;;;0.55;0.30;;;21.50;73.30;;;;;;5143549;27;45332;-72
2022/09/25 06:03:28;;;;;;;0.43;0.22;;;21.50;73.40;;;;;;5142509;27;45305;-72
2022/09/25 06:05:55;;;;;;;0.22;0.20;;;21.50;73.50;;;;;;5144864;27;45266;-72
2022/09/25 06:08:24;;;;;;;1.30;0.40;;;21.50;73.50;;;;;;5127311;27;45510;-73
2022/09/25 06:10:53;;;;;;;1.27;0.38;;;21.50;73.40;;;;;;5144244;27;45473;-72
2022/09/25 06:13:20;;;;;;;1.17;0.30;;;21.50;73.60;;;;;;5136402;27;45391;-72
2022/09/25 06:15:49;;;;;;;0.30;0.20;;;21.50;73.60;;;;;;5143660;27;45340;-72
2022/09/25 06:18:16;;;;;;;0.70;0.25;;;21.50;74.00;;;;;;5142021;27;46617;-72
2022/09/25 06:20:43;;;;;;;0.70;0.30;;;21.50;73.60;;;;;;5138045;27;45270;-72
2022/09/25 06:23:09;;;;;;;0.30;0.30;;;21.50;73.60;;;;;;5137550;27;45362;-72
2022/09/25 06:25:38;;;;;;;0.32;0.20;;;21.50;73.60;;;;;;5139838;27;45310;-72
2022/09/25 06:28:05;;;;;;;0.30;0.17;;;21.50;73.70;;;;;;5128590;27;46559;-72
2022/09/25 06:30:34;;;;;;;0.45;0.20;;;21.50;73.80;;;;;;5141600;27;45407;-72
2022/09/25 06:33:01;;;;;;;0.20;0.20;;;21.50;73.80;;;;;;5136834;27;45509;-72
2022/09/25 06:35:29;;;;;;;0.43;0.20;;;21.50;73.80;;;;;;5136781;27;45461;-73
2022/09/25 06:37:57;;;;;;;0.70;0.35;;;21.50;73.80;;;;;;5145518;27;47255;-72
2022/09/25 06:40:27;;;;;;;0.60;0.13;;;21.50;73.80;;;;;;5143271;27;46367;-72
2022/09/25 06:42:57;;;;;;;1.27;0.40;;;21.50;73.80;;;;;;5142857;27;45466;-72
2022/09/25 06:45:25;;;;;;;0.90;0.30;;;21.40;73.80;;;;;;5144242;27;45466;-73
2022/09/25 06:47:53;;;;;;;1.65;0.30;;;21.40;73.80;;;;;;5143475;27;47397;-73
2022/09/25 06:50:19;;;;;;;0.25;0.20;;;21.40;73.90;;;;;;5144852;27;45507;-72
2022/09/25 06:52:46;;;;;;;0.40;0.15;;;21.50;74.00;;;;;;5144049;27;45473;-73
2022/09/25 06:55:13;;;;;;;0.68;0.32;;;21.40;74.00;;;;;;5129581;27;45318;-72
2022/09/25 06:57:40;;;;;;;0.73;0.30;;;21.40;73.90;;;;;;5136373;27;46368;-72
2022/09/25 07:00:09;;;;;;;0.50;0.20;;;21.40;73.80;;;;;;5146500;27;45424;-72
2022/09/25 07:05:20;;;;;;;0.38;0.15;;;21.40;73.90;;;;;;5146747;27;45398;-73
2022/09/25 07:07:47;;;;;;;0.17;0.10;;;21.40;73.80;;;;;;5140195;27;46891;-72
2022/09/25 07:10:14;;;;;;;0.13;0.10;;;21.40;73.80;;;;;;5143245;27;45364;-72
2022/09/25 07:12:41;;;;;;;0.93;0.22;;;21.40;73.80;;;;;;5142168;27;45482;-73
2022/09/25 07:15:10;;;;;;;0.45;0.20;;;21.40;73.80;;;;;;5146439;27;45291;-72
2022/09/25 07:17:37;;;;;;;0.30;0.30;;;21.40;73.80;;;;;;5142205;27;47851;-73
2022/09/25 07:20:05;;;;;;;0.68;0.40;;;21.40;73.80;;;;;;5141244;27;45634;-72
2022/09/25 07:22:32;;;;;;;0.35;0.20;;;21.50;73.80;;;;;;5135445;27;45235;-72
2022/09/25 07:24:59;;;;;;;0.55;0.20;;;21.50;73.80;;;;;;5136218;27;45399;-72
2022/09/25 07:27:26;;;;;;;0.82;0.30;;;21.50;73.80;;;;;;5135819;27;47540;-73
2022/09/25 07:29:52;;;;;;;0.30;0.20;;;21.50;73.90;;;;;;5134558;27;45592;-72
2022/09/25 07:32:20;;;;;;;0.15;0.10;;;21.50;73.90;;;;;;5137641;27;45422;-73
2022/09/25 07:34:49;;;;;;;1.55;0.50;;;21.40;73.80;;;;;;5136762;27;45281;-72
2022/09/25 07:37:16;;;;;;;1.75;0.30;;;21.50;73.80;;;;;;5142602;27;48820;-73
2022/09/25 07:39:43;;;;;;;1.45;0.40;;;21.50;74.00;;;;;;5131511;27;45681;-73
2022/09/25 07:42:10;;;;;;;1.88;0.32;;;21.40;73.80;;;;;;5145345;27;45348;-73
2022/09/25 07:44:38;;;;;;;0.60;0.30;;;21.40;73.90;;;;;;5132225;27;45479;-73
2022/09/25 07:47:06;;;;;;;0.85;0.20;;;21.40;73.90;;;;;;5145803;27;46537;-73
2022/09/25 07:49:34;;;;;;;2.67;0.20;;;21.50;74.00;;;;;;5138717;27;45476;-73
2022/09/25 07:52:02;;;;;;;1.77;0.40;;;21.40;73.80;;;;;;5143902;27;45263;-73
2022/09/25 07:54:29;;;;;;;0.35;0.25;;;21.40;73.80;;;;;;5143749;27;45398;-73
2022/09/25 07:56:55;;;;;;;0.40;0.30;;;21.40;73.80;;;;;;5144819;27;48700;-72
2022/09/25 07:59:22;;;;;;;0.30;0.28;;;21.40;73.80;;;;;;5138568;27;45248;-73
2022/09/25 08:01:49;;;;;;;0.95;0.22;;;21.40;73.70;;;;;;5128418;27;45690;-72
2022/09/25 08:04:16;;;;;;;1.25;0.30;;;21.40;73.70;;;;;;5138580;27;45338;-73
2022/09/25 08:06:44;;;;;;;0.82;0.30;;;21.40;73.70;;;;;;5137878;27;48004;-73
2022/09/25 08:09:11;;;;;;;1.30;0.32;;;21.40;73.60;;;;;;5140386;27;45916;-73
2022/09/25 08:11:38;;;;;;;1.13;0.22;;;21.50;73.80;;;;;;5145551;27;45356;-73
2022/09/25 08:14:05;;;;;;;1.20;0.32;;;21.50;73.80;;;;;;5138753;27;45529;-72
2022/09/25 08:16:31;;;;;;;0.28;0.20;;;21.50;73.80;;;;;;5149877;27;46538;-73
2022/09/25 08:18:58;;;;;;;0.52;0.20;;;21.50;73.70;;;;;;5129077;27;45445;-72
2022/09/25 08:21:25;;;;;;;0.60;0.20;;;21.50;73.70;;;;;;5143125;27;45345;-73
2022/09/25 08:23:54;;;;;;;1.00;0.40;;;21.50;73.60;;;;;;5145799;27;45435;-73
2022/09/25 08:26:22;;;;;;;0.30;0.30;;;21.50;73.60;;;;;;5138016;27;45433;-72
2022/09/25 08:28:50;;;;;;;1.10;0.38;;;21.60;73.50;;;;;;5136768;27;45489;-73
2022/09/25 08:31:17;;;;;;;0.68;0.25;;;21.60;73.50;;;;;;5136641;27;45410;-73
2022/09/25 08:33:45;;;;;;;0.50;0.22;;;21.60;73.40;;;;;;5140391;27;45622;-74
2022/09/25 08:36:12;;;;;;;0.73;0.22;;;21.60;73.50;;;;;;5141475;27;46816;-72
2022/09/25 08:38:39;;;;;;;0.22;0.20;;;21.60;73.50;;;;;;5146002;27;45491;-73
2022/09/25 08:41:12;;;;;;;0.55;0.30;;;21.60;73.50;;;;;;5143743;27;45343;-73
2022/09/25 08:43:42;;;;;;;0.20;0.13;;;21.60;73.40;;;;;;5146132;27;45448;-73
2022/09/25 08:49:04;;;;;;;1.10;0.25;;;21.60;73.10;;;;;;5135488;27;45428;-73
2022/09/25 08:51:33;;;;;;;0.57;0.20;;;21.60;73.00;;;;;;5134348;27;45443;-73
2022/09/25 08:54:01;;;;;;;1.50;0.30;;;21.60;73.10;;;;;;5128227;27;45409;-74
2022/09/25 08:56:31;;;;;;;1.45;0.20;;;21.60;73.10;;;;;;5128623;27;46664;-73
2022/09/25 08:59:03;;;;;;;0.20;0.20;;;21.60;73.00;;;;;;5136831;27;45658;-73
2022/09/25 09:01:42;;;;;;;0.50;0.20;;;21.60;72.90;;;;;;5137445;27;45315;-73
2022/09/25 09:04:18;;;;;;;0.70;0.20;;;21.60;72.90;;;;;;5140441;27;45261;-73
2022/09/25 09:06:47;;;;;;;1.67;0.30;;;21.70;72.90;;;;;;5131520;27;45487;-73
2022/09/25 09:09:19;;;;;;;1.45;0.28;;;21.70;72.70;;;;;;5132266;27;45507;-74
2022/09/25 09:11:51;;;;;;;0.50;0.10;;;21.60;72.70;;;;;;5127522;27;45299;-73
2022/09/25 09:14:20;;;;;;;0.70;0.28;;;21.70;72.70;;;;;;5135013;27;45447;-73
2022/09/25 09:16:54;;;;;;;0.65;0.38;;;21.60;72.50;;;;;;5133833;27;47599;-73
2022/09/25 09:19:21;;;;;;;0.47;0.30;;;21.70;72.50;;;;;;5135374;27;45309;-74
2022/09/25 09:21:54;;;;;;;0.28;0.10;;;21.60;72.20;;;;;;5132119;27;45288;-73
2022/09/25 09:24:29;;;;;;;0.50;0.20;;;21.60;72.30;;;;;;5147359;27;45391;-73
2022/09/25 09:27:28;;;;;;;1.63;0.40;;;21.60;72.20;;;;;;5135651;27;46134;-73
2022/09/25 09:30:12;;;;;;;0.47;0.20;;;21.60;72.10;;;;;;5134787;27;45438;-73
2022/09/25 09:33:13;;;;;;;0.13;0.13;;;21.60;72.10;;;;;;5134533;27;45411;-73
2022/09/25 09:35:52;;;;;;;0.60;0.30;;;21.60;72.20;;;;;;5099492;27;45674;-73
2022/09/25 09:38:28;;;;;;;0.90;0.20;;;21.60;72.20;;;;;;5141779;27;47266;-73
2022/09/25 09:41:13;;;;;;;1.05;0.20;;;21.60;72.00;;;;;;5134724;27;45434;-73
2022/09/25 09:44:00;;;;;;;0.68;0.15;;;21.60;71.80;;;;;;5138317;27;45636;-73
2022/09/25 09:46:37;;;;;;;0.38;0.13;;;21.60;71.50;;;;;;5139616;27;45548;-73
2022/09/25 09:49:11;;;;;;;1.75;0.30;;;21.60;71.60;;;;;;5142222;27;48519;-73
2022/09/25 09:51:43;;;;;;;0.80;0.40;;;21.60;71.50;;;;;;5137986;27;45403;-74
2022/09/25 09:54:14;;;;;;;0.50;0.10;;;21.60;71.60;;;;;;5141403;27;45272;-73
2022/09/25 09:56:44;;;;;;;0.73;0.20;;;21.60;72.80;;;;;;5127178;27;45540;-73
2022/09/25 09:59:17;;;;;;;0.63;0.20;;;21.60;71.90;;;;;;5139252;27;47626;-73
2022/09/25 10:01:47;;;;;;;0.52;0.30;;;21.60;72.00;;;;;;5127008;27;45460;-73
2022/09/25 10:04:17;;;;;;;0.98;0.35;;;21.60;72.10;;;;;;5130749;27;45451;-73
2022/09/25 10:06:48;;;;;;;0.63;0.30;;;21.60;72.00;;;;;;5132945;27;45473;-73
2022/09/25 10:09:16;;;;;;;1.90;0.40;;;21.60;72.00;;;;;;5139616;27;47085;-73
2022/09/25 10:11:45;;;;;;;0.95;0.20;;;21.60;71.90;;;;;;5144293;27;45341;-73
2022/09/25 10:14:19;;;;;;;0.60;0.25;;;21.60;72.00;;;;;;5143700;27;45462;-72
2022/09/25 10:16:47;;;;;;;0.10;0.10;;;21.60;71.80;;;;;;5141639;27;45278;-71
2022/09/25 10:19:18;;;;;;;0.70;0.22;;;21.60;71.70;;;;;;5146316;27;45300;-73
2022/09/25 10:21:49;;;;;;;1.13;0.20;;;21.60;71.80;;;;;;5144795;27;45892;-73
2022/09/25 10:24:51;;;;;;;0.75;0.25;;;21.60;71.80;;;;;;5151185;27;45308;-73
2022/09/25 10:27:36;;;;;;;0.57;0.30;;;21.60;71.60;;;;;;5151838;27;45429;-73
2022/09/25 10:30:19;;;;;;;0.25;0.20;;;21.60;71.50;;;;;;5150602;27;45252;-73
2022/09/25 10:32:56;;;;;;;0.50;0.15;;;21.60;71.50;;;;;;5151000;27;45285;-73
2022/09/25 10:35:27;;;;;;;0.40;0.30;;;21.60;71.50;;;;;;5132168;27;45506;-73
2022/09/25 10:37:55;;;;;;;1.35;0.40;;;21.60;71.20;;;;;;5130943;27;45410;-73
2022/09/25 10:40:30;;;;;;;0.35;0.05;;;21.60;71.20;;;;;;5129229;27;46839;-73
2022/09/25 10:43:05;;;;;;;0.30;0.20;;;21.60;71.00;;;;;;5130619;27;45278;-72
2022/09/25 10:45:37;;;;;;;0.20;0.20;;;21.50;71.00;;;;;;5130440;27;45317;-73
2022/09/25 10:51:17;;;;;;;0.88;0.20;;;21.50;71.00;;;;;;5130465;27;45418;-74
2022/09/25 10:53:44;;;;;;;0.52;0.20;;;21.50;70.80;;;;;;5130597;27;45364;-73
2022/09/25 10:56:19;;;;;;;0.60;0.20;;;21.50;70.70;;;;;;5130703;27;45380;-72
2022/09/25 10:58:50;;;;;;;2.50;0.45;;;21.50;70.60;;;;;;5129949;27;45297;-72
2022/09/25 11:01:18;;;;;;;0.75;0.20;;;21.60;70.30;;;;;;5129819;27;47383;-72
2022/09/25 11:03:49;;;;;;;0.75;0.20;;;21.60;70.30;;;;;;5129684;27;45340;-72
2022/09/25 11:06:20;;;;;;;0.70;0.22;;;21.60;70.20;;;;;;5130526;27;45451;-72
2022/09/25 11:08:54;;;;;;;0.28;0.10;;;21.60;70.30;;;;;;5143700;27;45268;-72
2022/09/25 11:11:25;;;;;;;1.55;0.20;;;21.60;70.30;;;;;;5148736;27;47991;-72
2022/09/25 11:13:55;;;;;;;0.57;0.25;;;21.60;70.30;;;;;;5135735;27;45591;-72
2022/09/25 11:16:44;;;;;;;0.68;0.20;;;21.60;70.30;;;;;;5130085;27;45417;-72
2022/09/25 11:19:13;;;;;;;0.68;0.20;;;21.60;70.40;;;;;;5130133;27;45314;-72
2022/09/25 11:21:49;;;;;;;0.95;0.25;;;21.60;70.40;;;;;;5126847;27;48544;-72
2022/09/25 11:24:23;;;;;;;0.28;0.28;;;21.60;70.50;;;;;;5127453;27;45283;-72
2022/09/25 11:26:54;;;;;;;1.27;0.20;;;21.60;70.50;;;;;;5126526;27;45334;-73
2022/09/25 11:29:25;;;;;;;1.17;0.35;;;21.60;70.50;;;;;;5128388;27;45529;-72
2022/09/25 11:31:57;;;;;;;1.08;0.30;;;21.60;70.60;;;;;;5146868;27;46553;-73
2022/09/25 11:34:39;;;;;;;0.68;0.30;;;21.60;70.60;;;;;;5146719;27;45731;-73
2022/09/25 11:37:18;;;;;;;0.55;0.25;;;21.60;70.50;;;;;;5147139;27;45301;-73
2022/09/25 11:42:38;;;;;;;1.08;0.30;;;21.60;70.70;;;;;;5146266;27;45770;-72
2022/09/25 11:45:14;;;;;;;0.70;0.28;;;21.60;70.70;;;;;;5147175;27;45405;-73
2022/09/25 11:47:49;;;;;;;0.68;0.20;;;21.60;70.80;;;;;;5146959;27;45264;-72
2022/09/25 11:50:18;;;;;;;0.50;0.20;;;21.60;70.80;;;;;;5146497;27;45499;-73
2022/09/25 11:52:55;;;;;;;0.10;0.10;;;21.60;70.80;;;;;;5146987;27;46494;-72
2022/09/25 11:56:03;;;;;;;0.80;0.30;;;21.60;70.70;;;;;;5146235;27;45328;-73
2022/09/25 11:58:55;;;;;;;2.42;0.30;;;21.60;70.70;;;;;;5061563;28;45476;-72
2022/09/25 12:01:31;;;;;;;0.50;0.38;;;21.60;70.40;;;;;;5061353;28;45590;-72
2022/09/25 12:04:14;;;;;;;0.65;0.20;;;21.60;70.50;;;;;;5123316;27;47103;-72
2022/09/25 12:07:10;;;;;;;0.05;0.00;;;21.60;70.50;;;;;;5146312;27;45343;-73
2022/09/25 12:09:55;;;;;;;0.30;0.10;;;21.60;70.40;;;;;;5138594;27;45349;-72
2022/09/25 12:12:31;;;;;;;0.88;0.38;;;21.60;70.30;;;;;;5144400;27;45380;-72
2022/09/25 12:15:08;;;;;;;0.40;0.30;;;21.60;70.30;;;;;;5125456;27;46622;-73
2022/09/25 12:17:43;;;;;;;0.38;0.20;;;21.60;70.20;;;;;;5125390;27;46634;-73
2022/09/25 12:20:19;;;;;;;0.60;0.20;;;21.60;70.00;;;;;;5125056;27;45268;-73
2022/09/25 12:22:56;;;;;;;0.00;0.00;;;21.60;70.10;;;;;;5125846;27;45380;-72
2022/09/25 12:25:36;;;;;;;1.00;0.20;;;21.60;70.00;;;;;;5125517;27;46062;-73
2022/09/25 12:28:11;;;;;;;0.75;0.20;;;21.60;70.00;;;;;;5125671;27;45430;-72
2022/09/25 12:30:47;;;;;;;0.28;0.20;;;21.60;70.10;;;;;;5124761;27;45329;-72
2022/09/25 12:33:23;;;;;;;0.65;0.30;;;21.60;70.20;;;;;;5123642;27;45362;-72
2022/09/25 12:35:57;;;;;;;0.22;0.10;;;21.60;70.30;;;;;;5124964;27;46515;-72
2022/09/25 12:38:32;;;;;;;0.68;0.17;;;21.60;70.40;;;;;;5125488;27;45414;-73
2022/09/25 12:41:09;;;;;;;0.20;0.10;;;21.60;70.40;;;;;;5124771;27;45330;-73
2022/09/25 12:43:41;;;;;;;0.98;0.20;;;21.60;70.10;;;;;;5125655;27;45312;-72
2022/09/25 12:46:13;;;;;;;0.30;0.10;;;21.60;70.30;;;;;;5124954;27;47014;-73
2022/09/25 12:48:45;;;;;;;0.25;0.17;;;21.60;70.00;;;;;;5125222;27;45395;-72
2022/09/25 12:51:20;;;;;;;0.55;0.20;;;21.60;70.10;;;;;;5124951;27;45348;-73
2022/09/25 12:53:52;;;;;;;0.52;0.20;;;21.60;70.20;;;;;;5125396;27;45714;-72
2022/09/25 12:56:24;;;;;;;0.22;0.10;;;21.60;70.00;;;;;;5125084;27;48031;-73
2022/09/25 12:59:00;;;;;;;0.17;0.10;;;21.60;69.90;;;;;;5124842;27;45432;-72
2022/09/25 13:01:33;;;;;;;0.08;0.08;;;21.60;69.70;;;;;;5121155;27;45372;-73
2022/09/25 13:04:10;;;;;;;0.25;0.10;;;21.60;69.90;;;;;;5125405;27;45351;-72
2022/09/25 13:06:48;;;;;;;0.77;0.10;;;21.60;69.80;;;;;;5124219;27;46389;-73
2022/09/25 13:09:21;;;;;;;0.50;0.28;;;21.60;70.00;;;;;;5124383;27;45395;-73
2022/09/25 13:11:54;;;;;;;0.15;0.05;;;21.60;69.90;;;;;;5123954;27;45270;-73
2022/09/25 13:14:30;;;;;;;2.45;0.17;;;21.60;69.80;;;;;;5124325;27;45478;-73
2022/09/25 13:16:57;;;;;;;0.30;0.10;;;21.60;69.80;;;;;;5121654;27;46090;-72
2022/09/25 13:19:26;;;;;;;0.35;0.20;;;21.60;69.70;;;;;;5123935;27;45353;-73
2022/09/25 13:22:02;;;;;;;0.22;0.10;;;21.60;69.70;;;;;;5124754;27;45330;-72
2022/09/25 13:24:31;;;;;;;0.30;0.15;;;21.60;69.70;;;;;;5131336;27;45460;-73
2022/09/25 13:27:02;;;;;;;0.30;0.20;;;21.60;70.00;;;;;;5145158;27;46743;-72
2022/09/25 13:29:34;;;;;;;0.50;0.10;;;21.60;69.70;;;;;;5136553;27;45470;-73
2022/09/25 13:32:06;;;;;;;2.10;0.20;;;21.60;69.80;;;;;;5145478;27;45489;-73